sensor_id;sensor_type;location;lat;lon;timestamp;pressure;altitude;pressure_sealevel;temperature;humidity
61359;BME280;47228;46.762;23.598;2023-04-09T00:01:09;97727.18;;;4.44;77.42
61359;BME280;47228;46.762;23.598;2023-04-09T00:03:38;97727.89;;;4.40;77.12
61359;BME280;47228;46.762;23.598;2023-04-09T00:06:07;97724.64;;;4.39;77.35
61359;BME280;47228;46.762;23.598;2023-04-09T00:08:35;97727.33;;;4.41;77.34
61359;BME280;47228;46.762;23.598;2023-04-09T00:11:03;97727.41;;;4.42;77.27
61359;BME280;47228;46.762;23.598;2023-04-09T00:13:32;97728.80;;;4.42;77.23
61359;BME280;47228;46.762;23.598;2023-04-09T00:16:07;97727.30;;;4.41;76.91
61359;BME280;47228;46.762;23.598;2023-04-09T00:18:36;97727.73;;;4.38;76.69
61359;BME280;47228;46.762;23.598;2023-04-09T00:21:04;97732.26;;;4.35;76.64
61359;BME280;47228;46.762;23.598;2023-04-09T00:23:33;97727.64;;;4.32;76.39
61359;BME280;47228;46.762;23.598;2023-04-09T00:26:01;97730.25;;;4.31;76.36
61359;BME280;47228;46.762;23.598;2023-04-09T00:28:28;97728.51;;;4.29;76.50
61359;BME280;47228;46.762;23.598;2023-04-09T00:30:57;97731.78;;;4.26;76.34
61359;BME280;47228;46.762;23.598;2023-04-09T00:33:25;97728.11;;;4.22;76.48
61359;BME280;47228;46.762;23.598;2023-04-09T00:35:53;97731.26;;;4.18;76.49
61359;BME280;47228;46.762;23.598;2023-04-09T00:38:21;97733.64;;;4.16;76.72
61359;BME280;47228;46.762;23.598;2023-04-09T00:40:49;97731.19;;;4.14;76.85
61359;BME280;47228;46.762;23.598;2023-04-09T00:43:17;97727.70;;;4.13;76.74
61359;BME280;47228;46.762;23.598;2023-04-09T00:45:46;97730.36;;;4.12;76.85
61359;BME280;47228;46.762;23.598;2023-04-09T00:48:14;97727.30;;;4.11;76.83
61359;BME280;47228;46.762;23.598;2023-04-09T00:50:43;97728.64;;;4.11;76.98
61359;BME280;47228;46.762;23.598;2023-04-09T00:53:11;97727.34;;;4.12;77.04
61359;BME280;47228;46.762;23.598;2023-04-09T00:55:40;97727.68;;;4.10;76.90
61359;BME280;47228;46.762;23.598;2023-04-09T00:58:08;97730.59;;;4.09;77.19
61359;BME280;47228;46.762;23.598;2023-04-09T01:00:36;97728.52;;;4.09;77.18
61359;BME280;47228;46.762;23.598;2023-04-09T01:03:05;97728.52;;;4.09;77.36
61359;BME280;47228;46.762;23.598;2023-04-09T01:11:08;97726.13;;;4.14;77.45
61359;BME280;47228;46.762;23.598;2023-04-09T01:16:28;97725.60;;;4.10;77.63
61359;BME280;47228;46.762;23.598;2023-04-09T01:19:50;97724.45;;;4.09;77.86
61359;BME280;47228;46.762;23.598;2023-04-09T01:21:49;97725.27;;;4.10;78.41
61359;BME280;47228;46.762;23.598;2023-04-09T01:27:43;97727.01;;;4.08;78.28
61359;BME280;47228;46.762;23.598;2023-04-09T01:30:14;97725.02;;;4.09;78.02
61359;BME280;47228;46.762;23.598;2023-04-09T01:32:44;97728.52;;;4.09;77.71
61359;BME280;47228;46.762;23.598;2023-04-09T01:35:13;97728.23;;;4.10;78.00
61359;BME280;47228;46.762;23.598;2023-04-09T01:37:41;97729.09;;;4.10;77.95
61359;BME280;47228;46.762;23.598;2023-04-09T01:40:09;97729.17;;;4.11;77.95
61359;BME280;47228;46.762;23.598;2023-04-09T01:42:38;97728.91;;;4.12;78.28
61359;BME280;47228;46.762;23.598;2023-04-09T01:45:09;97726.48;;;4.12;78.20
61359;BME280;47228;46.762;23.598;2023-04-09T01:47:39;97724.44;;;4.11;77.83
61359;BME280;47228;46.762;23.598;2023-04-09T01:50:07;97724.29;;;4.09;78.10
61359;BME280;47228;46.762;23.598;2023-04-09T01:52:35;97727.64;;;4.09;78.53
61359;BME280;47228;46.762;23.598;2023-04-09T01:55:04;97724.62;;;4.09;78.37
61359;BME280;47228;46.762;23.598;2023-04-09T01:57:32;97724.12;;;4.08;78.21
61359;BME280;47228;46.762;23.598;2023-04-09T02:00:00;97725.13;;;4.08;78.51
61359;BME280;47228;46.762;23.598;2023-04-09T02:02:39;97723.95;;;4.07;78.30
61359;BME280;47228;46.762;23.598;2023-04-09T02:05:11;97723.92;;;4.06;78.32
61359;BME280;47228;46.762;23.598;2023-04-09T02:07:44;97726.98;;;4.05;78.05
61359;BME280;47228;46.762;23.598;2023-04-09T02:10:14;97729.50;;;4.03;78.37
61359;BME280;47228;46.762;23.598;2023-04-09T02:12:47;97727.95;;;4.00;78.18
61359;BME280;47228;46.762;23.598;2023-04-09T02:15:18;97728.54;;;3.98;78.37
61359;BME280;47228;46.762;23.598;2023-04-09T02:17:46;97729.65;;;3.97;78.58
61359;BME280;47228;46.762;23.598;2023-04-09T02:20:18;97729.70;;;3.95;78.22
61359;BME280;47228;46.762;23.598;2023-04-09T02:22:46;97728.43;;;3.94;78.25
61359;BME280;47228;46.762;23.598;2023-04-09T02:25:15;97726.84;;;3.92;78.39
61359;BME280;47228;46.762;23.598;2023-04-09T02:27:43;97727.58;;;3.90;78.21
61359;BME280;47228;46.762;23.598;2023-04-09T02:30:11;97724.89;;;3.88;78.19
61359;BME280;47228;46.762;23.598;2023-04-09T02:32:38;97722.06;;;3.89;78.31
61359;BME280;47228;46.762;23.598;2023-04-09T02:35:07;97724.35;;;3.89;78.29
61359;BME280;47228;46.762;23.598;2023-04-09T02:37:35;97723.58;;;3.90;78.23
61359;BME280;47228;46.762;23.598;2023-04-09T02:40:03;97722.06;;;3.89;78.17
61359;BME280;47228;46.762;23.598;2023-04-09T02:42:31;97721.89;;;3.89;78.25
61359;BME280;47228;46.762;23.598;2023-04-09T02:44:59;97719.63;;;3.89;78.29
61359;BME280;47228;46.762;23.598;2023-04-09T02:47:27;97714.13;;;3.87;78.14
61359;BME280;47228;46.762;23.598;2023-04-09T02:49:57;97714.17;;;3.85;78.11
61359;BME280;47228;46.762;23.598;2023-04-09T02:52:25;97717.36;;;3.85;78.04
61359;BME280;47228;46.762;23.598;2023-04-09T02:54:53;97715.98;;;3.85;78.32
61359;BME280;47228;46.762;23.598;2023-04-09T02:57:21;97715.42;;;3.85;78.30
61359;BME280;47228;46.762;23.598;2023-04-09T02:59:49;97715.41;;;3.83;78.24
61359;BME280;47228;46.762;23.598;2023-04-09T03:02:16;97716.55;;;3.82;78.21
61359;BME280;47228;46.762;23.598;2023-04-09T03:04:44;97715.72;;;3.82;78.32
61359;BME280;47228;46.762;23.598;2023-04-09T03:07:12;97711.50;;;3.82;78.25
61359;BME280;47228;46.762;23.598;2023-04-09T03:09:40;97715.61;;;3.83;78.31
61359;BME280;47228;46.762;23.598;2023-04-09T03:12:08;97716.08;;;3.84;78.25
61359;BME280;47228;46.762;23.598;2023-04-09T03:14:36;97715.98;;;3.85;78.37
61359;BME280;47228;46.762;23.598;2023-04-09T03:17:04;97711.25;;;3.85;78.57
61359;BME280;47228;46.762;23.598;2023-04-09T03:19:32;97710.94;;;3.86;78.63
61359;BME280;47228;46.762;23.598;2023-04-09T03:22:01;97711.85;;;3.89;78.93
61359;BME280;47228;46.762;23.598;2023-04-09T03:24:30;97716.48;;;3.94;79.09
61359;BME280;47228;46.762;23.598;2023-04-09T03:26:59;97713.72;;;3.99;79.42
61359;BME280;47228;46.762;23.598;2023-04-09T03:29:26;97714.55;;;4.03;79.47
61359;BME280;47228;46.762;23.598;2023-04-09T03:31:54;97717.70;;;4.07;79.20
61359;BME280;47228;46.762;23.598;2023-04-09T03:34:23;97718.16;;;4.09;78.93
61359;BME280;47228;46.762;23.598;2023-04-09T03:36:51;97720.36;;;4.08;78.65
61359;BME280;47228;46.762;23.598;2023-04-09T03:39:19;97720.55;;;4.05;78.45
61359;BME280;47228;46.762;23.598;2023-04-09T03:41:47;97721.73;;;4.01;78.63
61359;BME280;47228;46.762;23.598;2023-04-09T03:44:15;97723.62;;;4.02;78.68
61359;BME280;47228;46.762;23.598;2023-04-09T03:46:43;97726.13;;;4.05;78.69
61359;BME280;47228;46.762;23.598;2023-04-09T03:49:12;97727.66;;;4.09;78.79
61359;BME280;47228;46.762;23.598;2023-04-09T03:51:40;97729.83;;;4.12;78.84
61359;BME280;47228;46.762;23.598;2023-04-09T03:54:08;97730.62;;;4.12;78.77
61359;BME280;47228;46.762;23.598;2023-04-09T03:56:36;97736.17;;;4.11;78.72
61359;BME280;47228;46.762;23.598;2023-04-09T03:59:03;97741.25;;;4.06;78.52
61359;BME280;47228;46.762;23.598;2023-04-09T04:01:32;97738.84;;;4.00;78.65
61359;BME280;47228;46.762;23.598;2023-04-09T04:04:00;97745.58;;;3.97;78.95
61359;BME280;47228;46.762;23.598;2023-04-09T04:06:28;97745.39;;;3.94;78.69
61359;BME280;47228;46.762;23.598;2023-04-09T04:08:56;97748.27;;;3.92;78.69
61359;BME280;47228;46.762;23.598;2023-04-09T04:11:24;97750.95;;;3.91;78.73
61359;BME280;47228;46.762;23.598;2023-04-09T04:13:52;97749.25;;;3.92;78.88
61359;BME280;47228;46.762;23.598;2023-04-09T04:16:22;97750.86;;;3.92;78.75
61359;BME280;47228;46.762;23.598;2023-04-09T04:18:50;97752.73;;;3.91;78.49
61359;BME280;47228;46.762;23.598;2023-04-09T04:21:19;97751.31;;;3.91;78.57
61359;BME280;47228;46.762;23.598;2023-04-09T04:23:47;97753.66;;;3.90;78.47
61359;BME280;47228;46.762;23.598;2023-04-09T04:26:14;97758.03;;;3.90;78.76
61359;BME280;47228;46.762;23.598;2023-04-09T04:28:43;97761.55;;;3.94;78.96
61359;BME280;47228;46.762;23.598;2023-04-09T04:31:11;97766.94;;;3.97;78.90
61359;BME280;47228;46.762;23.598;2023-04-09T04:33:40;97764.57;;;4.00;78.87
61359;BME280;47228;46.762;23.598;2023-04-09T04:36:12;97761.82;;;4.02;78.73
61359;BME280;47228;46.762;23.598;2023-04-09T04:38:41;97764.36;;;4.03;78.59
61359;BME280;47228;46.762;23.598;2023-04-09T04:41:10;97765.36;;;4.05;78.74
61359;BME280;47228;46.762;23.598;2023-04-09T04:43:38;97761.88;;;4.07;78.56
61359;BME280;47228;46.762;23.598;2023-04-09T04:46:08;97759.52;;;4.08;78.69
61359;BME280;47228;46.762;23.598;2023-04-09T04:48:36;97764.97;;;4.09;78.82
61359;BME280;47228;46.762;23.598;2023-04-09T04:51:04;97764.02;;;4.10;79.12
61359;BME280;47228;46.762;23.598;2023-04-09T04:53:32;97766.69;;;4.11;78.98
61359;BME280;47228;46.762;23.598;2023-04-09T04:56:00;97767.02;;;4.13;79.04
61359;BME280;47228;46.762;23.598;2023-04-09T04:58:28;97763.08;;;4.16;78.94
61359;BME280;47228;46.762;23.598;2023-04-09T05:00:57;97762.01;;;4.18;78.88
61359;BME280;47228;46.762;23.598;2023-04-09T05:03:25;97761.57;;;4.20;79.05
61359;BME280;47228;46.762;23.598;2023-04-09T05:05:54;97762.39;;;4.23;78.89
61359;BME280;47228;46.762;23.598;2023-04-09T05:08:22;97767.22;;;4.23;78.77
61359;BME280;47228;46.762;23.598;2023-04-09T05:10:50;97769.96;;;4.24;78.89
61359;BME280;47228;46.762;23.598;2023-04-09T05:13:18;97774.65;;;4.23;78.62
61359;BME280;47228;46.762;23.598;2023-04-09T05:15:46;97775.11;;;4.24;78.73
61359;BME280;47228;46.762;23.598;2023-04-09T05:18:14;97774.37;;;4.26;78.77
61359;BME280;47228;46.762;23.598;2023-04-09T05:20:42;97773.40;;;4.29;78.77
61359;BME280;47228;46.762;23.598;2023-04-09T05:23:10;97775.10;;;4.31;78.31
61359;BME280;47228;46.762;23.598;2023-04-09T05:25:39;97776.61;;;4.32;78.22
61359;BME280;47228;46.762;23.598;2023-04-09T05:28:07;97777.76;;;4.31;78.22
61359;BME280;47228;46.762;23.598;2023-04-09T05:30:37;97778.23;;;4.31;78.61
61359;BME280;47228;46.762;23.598;2023-04-09T05:33:06;97780.10;;;4.32;78.53
61359;BME280;47228;46.762;23.598;2023-04-09T05:35:37;97782.55;;;4.34;78.63
61359;BME280;47228;46.762;23.598;2023-04-09T05:38:05;97784.00;;;4.35;78.62
61359;BME280;47228;46.762;23.598;2023-04-09T05:40:33;97783.30;;;4.37;78.73
61359;BME280;47228;46.762;23.598;2023-04-09T05:43:02;97787.61;;;4.39;78.70
61359;BME280;47228;46.762;23.598;2023-04-09T05:45:30;97793.13;;;4.37;78.36
61359;BME280;47228;46.762;23.598;2023-04-09T05:47:58;97795.57;;;4.35;78.39
61359;BME280;47228;46.762;23.598;2023-04-09T05:50:26;97796.44;;;4.35;78.44
61359;BME280;47228;46.762;23.598;2023-04-09T05:52:54;97800.92;;;4.37;78.81
61359;BME280;47228;46.762;23.598;2023-04-09T05:55:22;97801.69;;;4.40;78.28
61359;BME280;47228;46.762;23.598;2023-04-09T05:57:53;97807.39;;;4.40;77.56
61359;BME280;47228;46.762;23.598;2023-04-09T06:00:21;97809.56;;;4.37;77.69
61359;BME280;47228;46.762;23.598;2023-04-09T06:02:49;97810.56;;;4.37;77.65
61359;BME280;47228;46.762;23.598;2023-04-09T06:05:17;97812.67;;;4.39;77.49
61359;BME280;47228;46.762;23.598;2023-04-09T06:07:45;97815.83;;;4.39;77.36
61359;BME280;47228;46.762;23.598;2023-04-09T06:10:13;97819.48;;;4.44;77.56
61359;BME280;47228;46.762;23.598;2023-04-09T06:12:41;97820.50;;;4.49;77.70
61359;BME280;47228;46.762;23.598;2023-04-09T06:15:09;97823.20;;;4.57;77.98
61359;BME280;47228;46.762;23.598;2023-04-09T06:17:37;97822.43;;;4.65;77.74
61359;BME280;47228;46.762;23.598;2023-04-09T06:20:06;97818.73;;;4.74;77.58
61359;BME280;47228;46.762;23.598;2023-04-09T06:22:34;97820.08;;;4.83;77.47
61359;BME280;47228;46.762;23.598;2023-04-09T06:25:02;97821.77;;;4.91;76.98
61359;BME280;47228;46.762;23.598;2023-04-09T06:27:30;97824.67;;;4.99;76.75
61359;BME280;47228;46.762;23.598;2023-04-09T06:29:58;97826.60;;;5.06;76.50
61359;BME280;47228;46.762;23.598;2023-04-09T06:32:26;97824.80;;;5.14;76.49
61359;BME280;47228;46.762;23.598;2023-04-09T06:34:54;97824.54;;;5.20;75.93
61359;BME280;47228;46.762;23.598;2023-04-09T06:37:22;97827.73;;;5.26;76.03
61359;BME280;47228;46.762;23.598;2023-04-09T06:39:51;97824.10;;;5.34;75.88
61359;BME280;47228;46.762;23.598;2023-04-09T06:42:27;97827.69;;;5.42;75.81
61359;BME280;47228;46.762;23.598;2023-04-09T06:44:55;97827.22;;;5.50;75.73
61359;BME280;47228;46.762;23.598;2023-04-09T06:47:23;97826.42;;;5.57;75.47
61359;BME280;47228;46.762;23.598;2023-04-09T06:49:52;97822.73;;;5.62;74.54
61359;BME280;47228;46.762;23.598;2023-04-09T06:52:20;97824.77;;;5.66;74.34
61359;BME280;47228;46.762;23.598;2023-04-09T06:54:48;97825.79;;;5.72;74.06
61359;BME280;47228;46.762;23.598;2023-04-09T06:57:16;97825.30;;;5.76;73.45
61359;BME280;47228;46.762;23.598;2023-04-09T06:59:43;97823.53;;;5.78;73.47
61359;BME280;47228;46.762;23.598;2023-04-09T07:02:12;97822.27;;;5.85;73.58
61359;BME280;47228;46.762;23.598;2023-04-09T07:04:40;97820.76;;;5.94;73.40
61359;BME280;47228;46.762;23.598;2023-04-09T07:07:09;97817.46;;;5.99;72.81
61359;BME280;47228;46.762;23.598;2023-04-09T07:09:37;97815.33;;;6.05;73.03
61359;BME280;47228;46.762;23.598;2023-04-09T07:12:05;97815.55;;;6.14;73.55
61359;BME280;47228;46.762;23.598;2023-04-09T07:14:33;97812.13;;;6.25;72.82
61359;BME280;47228;46.762;23.598;2023-04-09T07:17:01;97809.64;;;6.35;71.69
61359;BME280;47228;46.762;23.598;2023-04-09T07:19:29;97810.48;;;6.48;71.38
61359;BME280;47228;46.762;23.598;2023-04-09T07:21:57;97810.54;;;6.55;70.30
61359;BME280;47228;46.762;23.598;2023-04-09T07:24:25;97810.05;;;6.66;70.52
61359;BME280;47228;46.762;23.598;2023-04-09T07:26:53;97811.09;;;6.83;71.21
61359;BME280;47228;46.762;23.598;2023-04-09T07:29:21;97810.30;;;7.02;70.88
61359;BME280;47228;46.762;23.598;2023-04-09T07:31:49;97807.80;;;7.16;69.02
61359;BME280;47228;46.762;23.598;2023-04-09T07:34:17;97806.89;;;7.26;68.85
61359;BME280;47228;46.762;23.598;2023-04-09T07:36:45;97810.33;;;7.40;68.19
61359;BME280;47228;46.762;23.598;2023-04-09T07:39:13;97809.16;;;7.49;66.84
61359;BME280;47228;46.762;23.598;2023-04-09T07:41:41;97811.90;;;7.59;66.76
61359;BME280;47228;46.762;23.598;2023-04-09T07:44:09;97814.85;;;7.71;65.75
61359;BME280;47228;46.762;23.598;2023-04-09T07:46:37;97817.14;;;7.74;65.75
61359;BME280;47228;46.762;23.598;2023-04-09T07:49:06;97818.20;;;7.82;66.38
61359;BME280;47228;46.762;23.598;2023-04-09T07:51:34;97819.27;;;7.94;66.30
61359;BME280;47228;46.762;23.598;2023-04-09T07:54:02;97822.35;;;8.14;66.88
61359;BME280;47228;46.762;23.598;2023-04-09T07:56:30;97823.09;;;8.28;64.54
61359;BME280;47228;46.762;23.598;2023-04-09T07:58:58;97823.52;;;8.35;64.19
61359;BME280;47228;46.762;23.598;2023-04-09T08:01:26;97821.21;;;8.43;63.73
61359;BME280;47228;46.762;23.598;2023-04-09T08:03:54;97828.10;;;8.52;64.72
61359;BME280;47228;46.762;23.598;2023-04-09T08:06:22;97824.83;;;8.67;64.26
61359;BME280;47228;46.762;23.598;2023-04-09T08:08:50;97829.52;;;8.85;64.86
61359;BME280;47228;46.762;23.598;2023-04-09T08:11:18;97826.90;;;9.02;63.98
61359;BME280;47228;46.762;23.598;2023-04-09T08:13:51;97827.27;;;9.18;63.77
61359;BME280;47228;46.762;23.598;2023-04-09T08:16:19;97822.91;;;9.31;63.01
61359;BME280;47228;46.762;23.598;2023-04-09T08:18:49;97818.59;;;9.43;62.59
61359;BME280;47228;46.762;23.598;2023-04-09T08:21:18;97813.71;;;9.58;61.71
61359;BME280;47228;46.762;23.598;2023-04-09T08:23:46;97812.95;;;9.62;60.94
61359;BME280;47228;46.762;23.598;2023-04-09T08:26:14;97817.48;;;9.69;61.22
61359;BME280;47228;46.762;23.598;2023-04-09T08:28:42;97813.06;;;9.83;61.86
61359;BME280;47228;46.762;23.598;2023-04-09T08:31:10;97814.27;;;9.92;61.15
61359;BME280;47228;46.762;23.598;2023-04-09T08:33:38;97813.59;;;9.94;60.72
61359;BME280;47228;46.762;23.598;2023-04-09T08:36:09;97813.46;;;10.01;60.88
61359;BME280;47228;46.762;23.598;2023-04-09T08:38:38;97812.67;;;10.16;61.22
61359;BME280;47228;46.762;23.598;2023-04-09T08:41:07;97813.39;;;10.37;61.53
61359;BME280;47228;46.762;23.598;2023-04-09T08:43:45;97815.42;;;10.56;60.33
61359;BME280;47228;46.762;23.598;2023-04-09T08:46:20;97811.61;;;10.70;58.29
61359;BME280;47228;46.762;23.598;2023-04-09T08:48:50;97814.56;;;10.71;58.10
61359;BME280;47228;46.762;23.598;2023-04-09T08:51:21;97812.38;;;10.80;59.09
61359;BME280;47228;46.762;23.598;2023-04-09T08:53:56;97810.02;;;10.93;58.80
61359;BME280;47228;46.762;23.598;2023-04-09T08:56:25;97807.41;;;10.95;57.35
61359;BME280;47228;46.762;23.598;2023-04-09T08:58:54;97803.88;;;10.93;57.48
61359;BME280;47228;46.762;23.598;2023-04-09T09:01:30;97801.76;;;11.00;57.80
61359;BME280;47228;46.762;23.598;2023-04-09T09:04:06;97802.19;;;11.06;57.29
61359;BME280;47228;46.762;23.598;2023-04-09T09:06:36;97803.05;;;11.12;57.48
61359;BME280;47228;46.762;23.598;2023-04-09T09:11:36;97801.00;;;11.42;58.13
61359;BME280;47228;46.762;23.598;2023-04-09T09:14:06;97800.04;;;11.60;57.26
61359;BME280;47228;46.762;23.598;2023-04-09T09:16:38;97801.90;;;11.76;57.18
61359;BME280;47228;46.762;23.598;2023-04-09T09:22:00;97796.69;;;11.69;55.87
61359;BME280;47228;46.762;23.598;2023-04-09T09:24:29;97794.59;;;11.58;55.54
61359;BME280;47228;46.762;23.598;2023-04-09T09:26:57;97794.98;;;11.53;55.14
61359;BME280;47228;46.762;23.598;2023-04-09T09:29:26;97798.58;;;11.63;55.52
61359;BME280;47228;46.762;23.598;2023-04-09T09:31:55;97796.94;;;11.74;55.00
61359;BME280;47228;46.762;23.598;2023-04-09T09:34:24;97796.95;;;11.78;55.05
61359;BME280;47228;46.762;23.598;2023-04-09T09:36:52;97796.59;;;11.80;54.27
61359;BME280;47228;46.762;23.598;2023-04-09T09:39:21;97791.67;;;11.81;53.28
61359;BME280;47228;46.762;23.598;2023-04-09T09:42:08;97793.02;;;11.83;53.46
61359;BME280;47228;46.762;23.598;2023-04-09T09:44:36;97790.77;;;11.84;53.03
61359;BME280;47228;46.762;23.598;2023-04-09T09:47:04;97788.52;;;11.79;53.84
61359;BME280;47228;46.762;23.598;2023-04-09T09:49:32;97785.77;;;11.73;53.91
61359;BME280;47228;46.762;23.598;2023-04-09T09:52:09;97785.69;;;11.63;52.89
61359;BME280;47228;46.762;23.598;2023-04-09T09:54:42;97782.23;;;11.49;52.36
61359;BME280;47228;46.762;23.598;2023-04-09T09:57:10;97782.98;;;11.38;53.03
61359;BME280;47228;46.762;23.598;2023-04-09T09:59:46;97785.77;;;11.32;53.66
61359;BME280;47228;46.762;23.598;2023-04-09T10:02:18;97782.98;;;11.31;54.28
61359;BME280;47228;46.762;23.598;2023-04-09T10:04:48;97781.77;;;11.31;54.97
61359;BME280;47228;46.762;23.598;2023-04-09T10:07:19;97781.14;;;11.30;54.46
61359;BME280;47228;46.762;23.598;2023-04-09T10:09:49;97776.10;;;11.29;54.18
61359;BME280;47228;46.762;23.598;2023-04-09T10:12:20;97775.20;;;11.28;53.90
61359;BME280;47228;46.762;23.598;2023-04-09T10:14:54;97776.17;;;11.27;54.02
61359;BME280;47228;46.762;23.598;2023-04-09T10:17:22;97772.88;;;11.24;53.76
61359;BME280;47228;46.762;23.598;2023-04-09T10:20:18;97769.11;;;11.23;54.31
61359;BME280;47228;46.762;23.598;2023-04-09T10:22:49;97766.45;;;11.31;54.39
61359;BME280;47228;46.762;23.598;2023-04-09T10:25:18;97765.34;;;11.40;54.32
61359;BME280;47228;46.762;23.598;2023-04-09T10:28:14;97765.80;;;11.51;53.73
61359;BME280;47228;46.762;23.598;2023-04-09T10:30:43;97765.80;;;11.79;54.13
61359;BME280;47228;46.762;23.598;2023-04-09T10:33:15;97768.00;;;12.04;53.22
61359;BME280;47228;46.762;23.598;2023-04-09T10:35:45;97770.39;;;12.11;52.38
61359;BME280;47228;46.762;23.598;2023-04-09T10:38:14;97769.28;;;12.14;52.29
61359;BME280;47228;46.762;23.598;2023-04-09T10:40:49;97771.95;;;12.18;51.75
61359;BME280;47228;46.762;23.598;2023-04-09T10:43:18;97772.13;;;12.21;51.14
61359;BME280;47228;46.762;23.598;2023-04-09T10:45:48;97769.95;;;12.19;50.66
61359;BME280;47228;46.762;23.598;2023-04-09T10:48:20;97769.91;;;12.23;51.30
61359;BME280;47228;46.762;23.598;2023-04-09T10:50:54;97769.50;;;12.33;51.13
61359;BME280;47228;46.762;23.598;2023-04-09T10:53:23;97763.20;;;12.39;50.71
61359;BME280;47228;46.762;23.598;2023-04-09T10:55:52;97762.83;;;12.39;50.68
61359;BME280;47228;46.762;23.598;2023-04-09T10:58:20;97759.46;;;12.32;50.97
61359;BME280;47228;46.762;23.598;2023-04-09T11:00:50;97756.61;;;12.30;50.61
61359;BME280;47228;46.762;23.598;2023-04-09T11:03:23;97754.02;;;12.29;50.43
61359;BME280;47228;46.762;23.598;2023-04-09T11:06:05;97755.08;;;12.27;50.46
61359;BME280;47228;46.762;23.598;2023-04-09T11:08:38;97757.09;;;12.25;50.79
61359;BME280;47228;46.762;23.598;2023-04-09T11:11:08;97757.70;;;12.19;50.60
61359;BME280;47228;46.762;23.598;2023-04-09T11:13:36;97756.27;;;12.12;50.51
61359;BME280;47228;46.762;23.598;2023-04-09T11:16:04;97752.19;;;12.06;50.44
61359;BME280;47228;46.762;23.598;2023-04-09T11:18:34;97750.77;;;12.02;50.48
61359;BME280;47228;46.762;23.598;2023-04-09T11:21:03;97752.29;;;12.06;50.33
61359;BME280;47228;46.762;23.598;2023-04-09T11:23:32;97752.37;;;12.06;50.60
61359;BME280;47228;46.762;23.598;2023-04-09T11:26:00;97754.16;;;12.06;50.53
61359;BME280;47228;46.762;23.598;2023-04-09T11:28:29;97751.46;;;12.07;50.69
61359;BME280;47228;46.762;23.598;2023-04-09T11:30:57;97748.06;;;12.09;50.43
61359;BME280;47228;46.762;23.598;2023-04-09T11:33:31;97752.13;;;12.12;50.32
61359;BME280;47228;46.762;23.598;2023-04-09T11:35:59;97747.00;;;12.15;50.30
61359;BME280;47228;46.762;23.598;2023-04-09T11:38:30;97748.27;;;12.18;50.44
61359;BME280;47228;46.762;23.598;2023-04-09T11:40:58;97747.63;;;12.22;50.23
61359;BME280;47228;46.762;23.598;2023-04-09T11:43:26;97750.25;;;12.23;50.19
61359;BME280;47228;46.762;23.598;2023-04-09T11:45:54;97753.36;;;12.19;50.02
61359;BME280;47228;46.762;23.598;2023-04-09T11:48:24;97751.02;;;12.18;49.97
61359;BME280;47228;46.762;23.598;2023-04-09T11:50:52;97752.33;;;12.18;49.39
61359;BME280;47228;46.762;23.598;2023-04-09T11:53:21;97753.40;;;12.16;49.34
61359;BME280;47228;46.762;23.598;2023-04-09T11:55:51;97755.61;;;12.18;49.43
61359;BME280;47228;46.762;23.598;2023-04-09T11:58:24;97755.36;;;12.19;48.87
61359;BME280;47228;46.762;23.598;2023-04-09T12:00:53;97755.52;;;12.13;48.64
61359;BME280;47228;46.762;23.598;2023-04-09T12:03:30;97754.91;;;12.10;48.52
61359;BME280;47228;46.762;23.598;2023-04-09T12:06:01;97750.94;;;12.08;48.82
61359;BME280;47228;46.762;23.598;2023-04-09T12:08:30;97752.45;;;12.07;48.89
61359;BME280;47228;46.762;23.598;2023-04-09T12:11:07;97755.89;;;12.08;48.38
61359;BME280;47228;46.762;23.598;2023-04-09T12:13:35;97750.37;;;12.11;48.59
61359;BME280;47228;46.762;23.598;2023-04-09T12:16:04;97748.27;;;12.16;48.60
61359;BME280;47228;46.762;23.598;2023-04-09T12:18:35;97745.98;;;12.21;48.57
61359;BME280;47228;46.762;23.598;2023-04-09T12:21:03;97744.30;;;12.26;48.53
61359;BME280;47228;46.762;23.598;2023-04-09T12:23:32;97742.79;;;12.28;47.65
61359;BME280;47228;46.762;23.598;2023-04-09T12:26:00;97743.12;;;12.25;47.80
61359;BME280;47228;46.762;23.598;2023-04-09T12:28:29;97740.95;;;12.26;47.99
61359;BME280;47228;46.762;23.598;2023-04-09T12:30:57;97735.50;;;12.28;47.91
61359;BME280;47228;46.762;23.598;2023-04-09T12:33:26;97737.34;;;12.32;47.31
61359;BME280;47228;46.762;23.598;2023-04-09T12:35:54;97734.68;;;12.34;47.04
61359;BME280;47228;46.762;23.598;2023-04-09T12:38:25;97734.15;;;12.37;46.83
61359;BME280;47228;46.762;23.598;2023-04-09T12:40:53;97734.72;;;12.45;47.61
61359;BME280;47228;46.762;23.598;2023-04-09T12:43:21;97735.73;;;12.53;47.10
61359;BME280;47228;46.762;23.598;2023-04-09T12:45:49;97734.13;;;12.63;46.89
61359;BME280;47228;46.762;23.598;2023-04-09T12:48:19;97731.16;;;12.74;46.70
61359;BME280;47228;46.762;23.598;2023-04-09T12:50:47;97726.78;;;12.83;45.91
61359;BME280;47228;46.762;23.598;2023-04-09T12:53:15;97728.48;;;12.90;45.81
61359;BME280;47228;46.762;23.598;2023-04-09T12:55:43;97725.96;;;13.00;45.85
61359;BME280;47228;46.762;23.598;2023-04-09T12:58:11;97725.44;;;13.12;45.84
61359;BME280;47228;46.762;23.598;2023-04-09T13:00:39;97719.04;;;13.30;46.08
61359;BME280;47228;46.762;23.598;2023-04-09T13:03:07;97716.35;;;13.51;45.78
61359;BME280;47228;46.762;23.598;2023-04-09T13:05:35;97716.81;;;13.73;45.34
61359;BME280;47228;46.762;23.598;2023-04-09T13:08:03;97713.73;;;13.85;44.16
61359;BME280;47228;46.762;23.598;2023-04-09T13:10:31;97713.36;;;13.86;43.88
61359;BME280;47228;46.762;23.598;2023-04-09T13:12:59;97713.55;;;13.88;43.82
61359;BME280;47228;46.762;23.598;2023-04-09T13:15:28;97713.88;;;13.81;43.06
61359;BME280;47228;46.762;23.598;2023-04-09T13:17:56;97713.69;;;13.78;43.46
61359;BME280;47228;46.762;23.598;2023-04-09T13:20:24;97707.48;;;13.78;43.73
61359;BME280;47228;46.762;23.598;2023-04-09T13:22:52;97709.10;;;13.77;43.87
61359;BME280;47228;46.762;23.598;2023-04-09T13:25:20;97708.05;;;13.76;43.93